sensor_id;sensor_type;location;lat;lon;timestamp;temperature;humidity
16038;DHT22;8123;50.906;6.172;2022-08-14T00:00:44;19.70;99.90
16038;DHT22;8123;50.906;6.172;2022-08-14T00:03:27;19.60;99.90
16038;DHT22;8123;50.906;6.172;2022-08-14T00:05:55;19.60;99.90
16038;DHT22;8123;50.906;6.172;2022-08-14T00:08:22;19.60;99.90
16038;DHT22;8123;50.906;6.172;2022-08-14T00:10:47;19.60;99.90
16038;DHT22;8123;50.906;6.172;2022-08-14T00:13:15;19.60;99.90
16038;DHT22;8123;50.906;6.172;2022-08-14T00:15:44;19.60;99.90
16038;DHT22;8123;50.906;6.172;2022-08-14T00:18:15;19.60;99.90
16038;DHT22;8123;50.906;6.172;2022-08-14T00:20:43;19.50;99.90
16038;DHT22;8123;50.906;6.172;2022-08-14T00:23:11;19.60;99.90
16038;DHT22;8123;50.906;6.172;2022-08-14T00:25:37;19.50;99.90
16038;DHT22;8123;50.906;6.172;2022-08-14T00:28:03;19.60;99.90
16038;DHT22;8123;50.906;6.172;2022-08-14T00:30:29;19.60;99.90
16038;DHT22;8123;50.906;6.172;2022-08-14T00:32:55;19.60;99.90
16038;DHT22;8123;50.906;6.172;2022-08-14T00:35:21;19.50;99.90
16038;DHT22;8123;50.906;6.172;2022-08-14T00:37:47;19.50;99.90
16038;DHT22;8123;50.906;6.172;2022-08-14T00:40:14;19.40;99.90
16038;DHT22;8123;50.906;6.172;2022-08-14T00:42:41;19.40;99.90
16038;DHT22;8123;50.906;6.172;2022-08-14T00:45:09;19.40;99.90
16038;DHT22;8123;50.906;6.172;2022-08-14T00:47:35;19.40;99.90
16038;DHT22;8123;50.906;6.172;2022-08-14T00:50:05;19.30;99.90
16038;DHT22;8123;50.906;6.172;2022-08-14T00:52:32;19.30;99.90
16038;DHT22;8123;50.906;6.172;2022-08-14T00:54:58;19.30;99.90
16038;DHT22;8123;50.906;6.172;2022-08-14T00:57:27;19.30;99.90
16038;DHT22;8123;50.906;6.172;2022-08-14T00:59:53;19.30;99.90
16038;DHT22;8123;50.906;6.172;2022-08-14T01:02:20;19.20;99.90
16038;DHT22;8123;50.906;6.172;2022-08-14T01:04:51;19.20;99.90
16038;DHT22;8123;50.906;6.172;2022-08-14T01:07:17;19.20;99.90
16038;DHT22;8123;50.906;6.172;2022-08-14T01:09:48;19.20;99.90
16038;DHT22;8123;50.906;6.172;2022-08-14T01:12:16;19.20;99.90
16038;DHT22;8123;50.906;6.172;2022-08-14T01:14:42;19.10;99.90
16038;DHT22;8123;50.906;6.172;2022-08-14T01:17:08;19.10;99.90
16038;DHT22;8123;50.906;6.172;2022-08-14T01:19:33;19.20;99.90
16038;DHT22;8123;50.906;6.172;2022-08-14T01:22:17;19.10;99.90
16038;DHT22;8123;50.906;6.172;2022-08-14T01:24:43;19.10;99.90
16038;DHT22;8123;50.906;6.172;2022-08-14T01:27:16;19.10;99.90
16038;DHT22;8123;50.906;6.172;2022-08-14T01:29:49;19.10;99.90
16038;DHT22;8123;50.906;6.172;2022-08-14T01:32:20;19.20;99.90
16038;DHT22;8123;50.906;6.172;2022-08-14T01:34:50;19.10;99.90
16038;DHT22;8123;50.906;6.172;2022-08-14T01:37:18;19.20;99.90
16038;DHT22;8123;50.906;6.172;2022-08-14T01:39:47;19.20;99.90
16038;DHT22;8123;50.906;6.172;2022-08-14T01:42:13;19.20;99.90
16038;DHT22;8123;50.906;6.172;2022-08-14T01:44:39;19.20;99.90
16038;DHT22;8123;50.906;6.172;2022-08-14T01:47:07;19.10;99.90
16038;DHT22;8123;50.906;6.172;2022-08-14T01:49:36;19.10;99.90
16038;DHT22;8123;50.906;6.172;2022-08-14T01:52:03;19.10;99.90
16038;DHT22;8123;50.906;6.172;2022-08-14T01:54:28;19.10;99.90
16038;DHT22;8123;50.906;6.172;2022-08-14T01:56:56;19.10;99.90
16038;DHT22;8123;50.906;6.172;2022-08-14T01:59:30;19.10;99.90
16038;DHT22;8123;50.906;6.172;2022-08-14T02:02:01;19.10;99.90
16038;DHT22;8123;50.906;6.172;2022-08-14T02:04:33;19.10;99.90
16038;DHT22;8123;50.906;6.172;2022-08-14T02:07:00;19.10;99.90
16038;DHT22;8123;50.906;6.172;2022-08-14T02:09:27;19.10;99.90
16038;DHT22;8123;50.906;6.172;2022-08-14T02:11:55;19.10;99.90
16038;DHT22;8123;50.906;6.172;2022-08-14T02:14:21;19.00;99.90
16038;DHT22;8123;50.906;6.172;2022-08-14T02:16:49;19.00;99.90
16038;DHT22;8123;50.906;6.172;2022-08-14T02:19:22;19.00;99.90
16038;DHT22;8123;50.906;6.172;2022-08-14T02:21:50;18.90;99.90
16038;DHT22;8123;50.906;6.172;2022-08-14T02:24:18;18.90;99.90
16038;DHT22;8123;50.906;6.172;2022-08-14T02:26:45;18.90;99.90
16038;DHT22;8123;50.906;6.172;2022-08-14T02:29:15;18.90;99.90
16038;DHT22;8123;50.906;6.172;2022-08-14T02:31:44;18.90;99.90
16038;DHT22;8123;50.906;6.172;2022-08-14T02:34:24;18.80;99.90
16038;DHT22;8123;50.906;6.172;2022-08-14T02:36:55;18.80;99.90
16038;DHT22;8123;50.906;6.172;2022-08-14T02:39:23;18.80;99.90
16038;DHT22;8123;50.906;6.172;2022-08-14T02:41:49;18.90;99.90
16038;DHT22;8123;50.906;6.172;2022-08-14T02:44:15;18.80;99.90
16038;DHT22;8123;50.906;6.172;2022-08-14T02:46:43;18.80;99.90
16038;DHT22;8123;50.906;6.172;2022-08-14T02:49:09;18.90;99.90
16038;DHT22;8123;50.906;6.172;2022-08-14T02:51:36;18.80;99.90
16038;DHT22;8123;50.906;6.172;2022-08-14T02:54:04;18.80;99.90
16038;DHT22;8123;50.906;6.172;2022-08-14T02:56:31;18.80;99.90
16038;DHT22;8123;50.906;6.172;2022-08-14T02:58:57;18.80;99.90
16038;DHT22;8123;50.906;6.172;2022-08-14T03:01:26;18.80;99.90
16038;DHT22;8123;50.906;6.172;2022-08-14T03:03:53;18.70;99.90
16038;DHT22;8123;50.906;6.172;2022-08-14T03:06:20;18.70;99.90
16038;DHT22;8123;50.906;6.172;2022-08-14T03:08:48;18.60;99.90
16038;DHT22;8123;50.906;6.172;2022-08-14T03:11:14;18.60;99.90
16038;DHT22;8123;50.906;6.172;2022-08-14T03:13:45;18.60;99.90
16038;DHT22;8123;50.906;6.172;2022-08-14T03:16:14;18.60;99.90
16038;DHT22;8123;50.906;6.172;2022-08-14T03:18:41;18.60;99.90
16038;DHT22;8123;50.906;6.172;2022-08-14T03:21:09;18.50;99.90
16038;DHT22;8123;50.906;6.172;2022-08-14T03:23:42;18.50;99.90
16038;DHT22;8123;50.906;6.172;2022-08-14T03:26:12;18.50;99.90
16038;DHT22;8123;50.906;6.172;2022-08-14T03:28:41;18.50;99.90
16038;DHT22;8123;50.906;6.172;2022-08-14T03:31:08;18.50;99.90
16038;DHT22;8123;50.906;6.172;2022-08-14T03:33:35;18.40;99.90
16038;DHT22;8123;50.906;6.172;2022-08-14T03:36:06;18.40;99.90
16038;DHT22;8123;50.906;6.172;2022-08-14T03:38:40;18.40;99.90
16038;DHT22;8123;50.906;6.172;2022-08-14T03:41:17;18.40;99.90
16038;DHT22;8123;50.906;6.172;2022-08-14T03:43:47;18.30;99.90
16038;DHT22;8123;50.906;6.172;2022-08-14T03:46:13;18.30;99.90
16038;DHT22;8123;50.906;6.172;2022-08-14T03:48:40;18.20;99.90
16038;DHT22;8123;50.906;6.172;2022-08-14T03:51:08;18.20;99.90
16038;DHT22;8123;50.906;6.172;2022-08-14T03:53:39;18.20;99.90
16038;DHT22;8123;50.906;6.172;2022-08-14T03:56:07;18.10;99.90
16038;DHT22;8123;50.906;6.172;2022-08-14T03:58:37;18.10;99.90
16038;DHT22;8123;50.906;6.172;2022-08-14T04:01:03;18.10;99.90
16038;DHT22;8123;50.906;6.172;2022-08-14T04:03:29;18.10;99.90
16038;DHT22;8123;50.906;6.172;2022-08-14T04:05:55;18.10;99.90
16038;DHT22;8123;50.906;6.172;2022-08-14T04:08:21;18.10;99.90
16038;DHT22;8123;50.906;6.172;2022-08-14T04:10:47;18.20;99.90
16038;DHT22;8123;50.906;6.172;2022-08-14T04:13:13;18.10;99.90
16038;DHT22;8123;50.906;6.172;2022-08-14T04:15:46;18.10;99.90
16038;DHT22;8123;50.906;6.172;2022-08-14T04:18:13;18.10;99.90
16038;DHT22;8123;50.906;6.172;2022-08-14T04:20:40;18.10;99.90
16038;DHT22;8123;50.906;6.172;2022-08-14T04:23:08;18.10;99.90
16038;DHT22;8123;50.906;6.172;2022-08-14T04:25:34;18.10;99.90
16038;DHT22;8123;50.906;6.172;2022-08-14T04:28:05;18.10;99.90
16038;DHT22;8123;50.906;6.172;2022-08-14T04:30:32;18.10;99.90
16038;DHT22;8123;50.906;6.172;2022-08-14T04:33:05;18.10;99.90
16038;DHT22;8123;50.906;6.172;2022-08-14T04:35:32;18.10;99.90
16038;DHT22;8123;50.906;6.172;2022-08-14T04:37:57;18.10;99.90
16038;DHT22;8123;50.906;6.172;2022-08-14T04:40:41;18.20;99.90
16038;DHT22;8123;50.906;6.172;2022-08-14T04:43:25;18.20;99.90
16038;DHT22;8123;50.906;6.172;2022-08-14T04:46:01;18.20;99.90
16038;DHT22;8123;50.906;6.172;2022-08-14T04:48:27;18.20;99.90
16038;DHT22;8123;50.906;6.172;2022-08-14T04:50:53;18.20;99.90
16038;DHT22;8123;50.906;6.172;2022-08-14T04:53:29;18.20;99.90
16038;DHT22;8123;50.906;6.172;2022-08-14T04:55:55;18.30;99.90
16038;DHT22;8123;50.906;6.172;2022-08-14T04:58:26;18.30;99.90
16038;DHT22;8123;50.906;6.172;2022-08-14T05:00:54;18.30;99.90
16038;DHT22;8123;50.906;6.172;2022-08-14T05:03:22;18.40;99.90
16038;DHT22;8123;50.906;6.172;2022-08-14T05:05:52;18.40;99.90
16038;DHT22;8123;50.906;6.172;2022-08-14T05:08:19;18.40;99.90
16038;DHT22;8123;50.906;6.172;2022-08-14T05:10:53;18.50;99.90
16038;DHT22;8123;50.906;6.172;2022-08-14T05:13:20;18.60;99.90
16038;DHT22;8123;50.906;6.172;2022-08-14T05:15:46;18.60;99.90
16038;DHT22;8123;50.906;6.172;2022-08-14T05:18:15;18.70;99.90
16038;DHT22;8123;50.906;6.172;2022-08-14T05:20:46;18.70;99.90
16038;DHT22;8123;50.906;6.172;2022-08-14T05:23:15;18.70;99.90
16038;DHT22;8123;50.906;6.172;2022-08-14T05:25:41;18.80;99.90
16038;DHT22;8123;50.906;6.172;2022-08-14T05:28:11;18.90;99.90
16038;DHT22;8123;50.906;6.172;2022-08-14T05:30:37;18.90;99.90
16038;DHT22;8123;50.906;6.172;2022-08-14T05:33:04;19.00;99.90
16038;DHT22;8123;50.906;6.172;2022-08-14T05:35:30;19.10;99.90
16038;DHT22;8123;50.906;6.172;2022-08-14T05:38:05;19.10;99.90
16038;DHT22;8123;50.906;6.172;2022-08-14T05:40:32;19.30;99.90
16038;DHT22;8123;50.906;6.172;2022-08-14T05:42:58;19.40;99.90
16038;DHT22;8123;50.906;6.172;2022-08-14T05:45:23;19.40;99.90
16038;DHT22;8123;50.906;6.172;2022-08-14T05:47:49;19.50;99.90
16038;DHT22;8123;50.906;6.172;2022-08-14T05:50:14;19.60;99.90
16038;DHT22;8123;50.906;6.172;2022-08-14T05:52:40;19.60;99.90
16038;DHT22;8123;50.906;6.172;2022-08-14T05:55:08;19.70;99.90
16038;DHT22;8123;50.906;6.172;2022-08-14T05:57:34;19.70;99.90
16038;DHT22;8123;50.906;6.172;2022-08-14T06:00:10;19.80;99.90
16038;DHT22;8123;50.906;6.172;2022-08-14T06:02:36;19.80;99.90
16038;DHT22;8123;50.906;6.172;2022-08-14T06:05:02;19.90;99.90
16038;DHT22;8123;50.906;6.172;2022-08-14T06:07:27;19.90;99.90
16038;DHT22;8123;50.906;6.172;2022-08-14T06:09:53;20.00;99.90
16038;DHT22;8123;50.906;6.172;2022-08-14T06:12:18;20.00;99.90
16038;DHT22;8123;50.906;6.172;2022-08-14T06:14:44;20.20;99.90
16038;DHT22;8123;50.906;6.172;2022-08-14T06:17:10;20.20;99.90
16038;DHT22;8123;50.906;6.172;2022-08-14T06:19:35;20.30;99.90
16038;DHT22;8123;50.906;6.172;2022-08-14T06:22:01;20.40;99.90
16038;DHT22;8123;50.906;6.172;2022-08-14T06:24:27;20.40;99.90
16038;DHT22;8123;50.906;6.172;2022-08-14T06:26:53;20.50;99.90
16038;DHT22;8123;50.906;6.172;2022-08-14T06:29:18;20.60;99.90
16038;DHT22;8123;50.906;6.172;2022-08-14T06:31:44;20.60;99.90
16038;DHT22;8123;50.906;6.172;2022-08-14T06:34:09;20.60;99.90
16038;DHT22;8123;50.906;6.172;2022-08-14T06:36:35;20.70;99.90
16038;DHT22;8123;50.906;6.172;2022-08-14T06:39:03;20.70;99.90
16038;DHT22;8123;50.906;6.172;2022-08-14T06:41:28;20.80;99.90
16038;DHT22;8123;50.906;6.172;2022-08-14T06:43:54;20.90;99.90
16038;DHT22;8123;50.906;6.172;2022-08-14T06:46:20;21.00;99.90
16038;DHT22;8123;50.906;6.172;2022-08-14T06:48:47;21.00;99.90
16038;DHT22;8123;50.906;6.172;2022-08-14T06:51:13;21.20;99.90
16038;DHT22;8123;50.906;6.172;2022-08-14T06:53:39;21.20;99.90
16038;DHT22;8123;50.906;6.172;2022-08-14T06:56:05;21.30;99.90
16038;DHT22;8123;50.906;6.172;2022-08-14T06:58:30;21.40;99.90
16038;DHT22;8123;50.906;6.172;2022-08-14T07:00:56;21.50;99.90
16038;DHT22;8123;50.906;6.172;2022-08-14T07:03:40;21.50;99.90
16038;DHT22;8123;50.906;6.172;2022-08-14T07:06:24;21.60;99.90
16038;DHT22;8123;50.906;6.172;2022-08-14T07:08:50;21.70;99.90
16038;DHT22;8123;50.906;6.172;2022-08-14T07:11:16;21.80;99.90
16038;DHT22;8123;50.906;6.172;2022-08-14T07:13:42;21.90;99.90
16038;DHT22;8123;50.906;6.172;2022-08-14T07:16:08;22.00;99.90
16038;DHT22;8123;50.906;6.172;2022-08-14T07:18:37;22.00;99.90
16038;DHT22;8123;50.906;6.172;2022-08-14T07:21:04;22.10;99.90
16038;DHT22;8123;50.906;6.172;2022-08-14T07:23:31;22.20;99.90
16038;DHT22;8123;50.906;6.172;2022-08-14T07:25:58;22.30;99.90
16038;DHT22;8123;50.906;6.172;2022-08-14T07:28:27;22.40;99.90
16038;DHT22;8123;50.906;6.172;2022-08-14T07:30:54;22.40;99.90
16038;DHT22;8123;50.906;6.172;2022-08-14T07:33:31;22.60;99.90
16038;DHT22;8123;50.906;6.172;2022-08-14T07:35:59;22.60;99.90
16038;DHT22;8123;50.906;6.172;2022-08-14T07:38:26;22.70;99.90
16038;DHT22;8123;50.906;6.172;2022-08-14T07:40:52;22.70;99.90
16038;DHT22;8123;50.906;6.172;2022-08-14T07:43:18;22.80;99.90
16038;DHT22;8123;50.906;6.172;2022-08-14T07:45:45;22.80;99.90
16038;DHT22;8123;50.906;6.172;2022-08-14T07:48:11;22.90;99.90
16038;DHT22;8123;50.906;6.172;2022-08-14T07:50:37;22.90;99.90
16038;DHT22;8123;50.906;6.172;2022-08-14T07:53:04;22.80;99.90
16038;DHT22;8123;50.906;6.172;2022-08-14T07:55:31;23.10;99.90
16038;DHT22;8123;50.906;6.172;2022-08-14T07:57:57;23.20;99.90
16038;DHT22;8123;50.906;6.172;2022-08-14T08:00:24;23.20;99.90
16038;DHT22;8123;50.906;6.172;2022-08-14T08:02:52;23.40;99.90
16038;DHT22;8123;50.906;6.172;2022-08-14T08:05:20;23.50;99.90
16038;DHT22;8123;50.906;6.172;2022-08-14T08:07:46;23.50;99.90
16038;DHT22;8123;50.906;6.172;2022-08-14T08:10:20;23.60;99.90
16038;DHT22;8123;50.906;6.172;2022-08-14T08:15:30;23.70;99.90
16038;DHT22;8123;50.906;6.172;2022-08-14T08:17:59;23.90;99.90
16038;DHT22;8123;50.906;6.172;2022-08-14T08:20:31;23.80;99.90
16038;DHT22;8123;50.906;6.172;2022-08-14T08:22:58;24.00;99.90
16038;DHT22;8123;50.906;6.172;2022-08-14T08:25:26;24.00;99.90
16038;DHT22;8123;50.906;6.172;2022-08-14T08:27:56;24.00;99.90
16038;DHT22;8123;50.906;6.172;2022-08-14T08:30:22;24.10;99.90
16038;DHT22;8123;50.906;6.172;2022-08-14T08:32:51;24.20;99.90
16038;DHT22;8123;50.906;6.172;2022-08-14T08:35:19;24.30;99.90
16038;DHT22;8123;50.906;6.172;2022-08-14T08:37:49;24.30;99.90
16038;DHT22;8123;50.906;6.172;2022-08-14T08:40:29;24.40;99.90
16038;DHT22;8123;50.906;6.172;2022-08-14T08:42:56;24.50;99.90
16038;DHT22;8123;50.906;6.172;2022-08-14T08:45:21;24.60;99.90
16038;DHT22;8123;50.906;6.172;2022-08-14T08:47:49;24.70;99.90
16038;DHT22;8123;50.906;6.172;2022-08-14T08:50:40;24.80;99.90
16038;DHT22;8123;50.906;6.172;2022-08-14T08:53:08;24.80;99.90
16038;DHT22;8123;50.906;6.172;2022-08-14T08:55:39;24.90;99.90
16038;DHT22;8123;50.906;6.172;2022-08-14T08:58:07;24.90;99.90
16038;DHT22;8123;50.906;6.172;2022-08-14T09:00:35;25.00;99.90
16038;DHT22;8123;50.906;6.172;2022-08-14T09:03:11;25.10;99.90
16038;DHT22;8123;50.906;6.172;2022-08-14T09:05:48;25.20;99.90
16038;DHT22;8123;50.906;6.172;2022-08-14T09:08:22;25.20;99.90
16038;DHT22;8123;50.906;6.172;2022-08-14T09:10:53;25.30;99.90
16038;DHT22;8123;50.906;6.172;2022-08-14T09:13:19;25.40;99.90
16038;DHT22;8123;50.906;6.172;2022-08-14T09:15:47;25.50;99.90
16038;DHT22;8123;50.906;6.172;2022-08-14T09:18:16;25.50;99.90
16038;DHT22;8123;50.906;6.172;2022-08-14T09:20:45;25.70;99.90
16038;DHT22;8123;50.906;6.172;2022-08-14T09:23:12;25.70;99.90
16038;DHT22;8123;50.906;6.172;2022-08-14T09:25:41;25.80;99.90
16038;DHT22;8123;50.906;6.172;2022-08-14T09:28:08;25.90;99.90
16038;DHT22;8123;50.906;6.172;2022-08-14T09:30:37;25.90;99.90
16038;DHT22;8123;50.906;6.172;2022-08-14T09:35:42;26.10;99.90
16038;DHT22;8123;50.906;6.172;2022-08-14T09:38:25;26.10;99.90
16038;DHT22;8123;50.906;6.172;2022-08-14T09:41:10;26.20;99.90
16038;DHT22;8123;50.906;6.172;2022-08-14T09:44:27;26.30;99.90
16038;DHT22;8123;50.906;6.172;2022-08-14T09:46:37;26.40;99.90
16038;DHT22;8123;50.906;6.172;2022-08-14T09:49:04;26.40;99.90
16038;DHT22;8123;50.906;6.172;2022-08-14T09:51:31;26.40;99.90
16038;DHT22;8123;50.906;6.172;2022-08-14T09:54:06;26.60;99.90
16038;DHT22;8123;50.906;6.172;2022-08-14T09:56:45;26.60;99.90
16038;DHT22;8123;50.906;6.172;2022-08-14T09:59:14;26.70;99.90
16038;DHT22;8123;50.906;6.172;2022-08-14T10:01:40;26.70;99.90
16038;DHT22;8123;50.906;6.172;2022-08-14T10:04:17;26.90;99.90
16038;DHT22;8123;50.906;6.172;2022-08-14T10:06:44;26.90;99.90
16038;DHT22;8123;50.906;6.172;2022-08-14T10:09:10;27.10;99.90
16038;DHT22;8123;50.906;6.172;2022-08-14T10:11:38;27.10;99.90
16038;DHT22;8123;50.906;6.172;2022-08-14T10:14:16;27.20;99.90
16038;DHT22;8123;50.906;6.172;2022-08-14T10:16:53;27.30;99.90
16038;DHT22;8123;50.906;6.172;2022-08-14T10:19:23;27.40;99.90
16038;DHT22;8123;50.906;6.172;2022-08-14T10:22:06;27.40;99.90
16038;DHT22;8123;50.906;6.172;2022-08-14T10:24:42;27.40;99.90
16038;DHT22;8123;50.906;6.172;2022-08-14T10:27:33;27.50;99.90
16038;DHT22;8123;50.906;6.172;2022-08-14T10:29:59;27.50;99.90
16038;DHT22;8123;50.906;6.172;2022-08-14T10:32:25;27.60;99.90
16038;DHT22;8123;50.906;6.172;2022-08-14T10:35:05;27.80;99.60
16038;DHT22;8123;50.906;6.172;2022-08-14T10:37:40;27.70;98.20
16038;DHT22;8123;50.906;6.172;2022-08-14T10:40:07;27.90;97.80
16038;DHT22;8123;50.906;6.172;2022-08-14T10:42:38;27.80;96.70
16038;DHT22;8123;50.906;6.172;2022-08-14T10:45:23;27.70;99.90
16038;DHT22;8123;50.906;6.172;2022-08-14T10:47:50;27.70;98.50
16038;DHT22;8123;50.906;6.172;2022-08-14T10:50:31;27.80;97.50
16038;DHT22;8123;50.906;6.172;2022-08-14T10:52:58;27.80;95.90
16038;DHT22;8123;50.906;6.172;2022-08-14T10:55:39;27.90;98.30
16038;DHT22;8123;50.906;6.172;2022-08-14T10:58:07;28.00;96.30
16038;DHT22;8123;50.906;6.172;2022-08-14T11:00:35;27.90;98.30
16038;DHT22;8123;50.906;6.172;2022-08-14T11:03:04;27.90;99.90
16038;DHT22;8123;50.906;6.172;2022-08-14T11:05:42;27.90;97.60
16038;DHT22;8123;50.906;6.172;2022-08-14T11:08:08;28.00;97.10
16038;DHT22;8123;50.906;6.172;2022-08-14T11:10:58;28.00;98.30
16038;DHT22;8123;50.906;6.172;2022-08-14T11:13:28;28.20;95.10
16038;DHT22;8123;50.906;6.172;2022-08-14T11:15:55;28.40;95.70
16038;DHT22;8123;50.906;6.172;2022-08-14T11:18:22;28.40;96.00
16038;DHT22;8123;50.906;6.172;2022-08-14T11:20:53;28.40;96.10
16038;DHT22;8123;50.906;6.172;2022-08-14T11:23:41;28.40;95.50
16038;DHT22;8123;50.906;6.172;2022-08-14T11:26:07;28.40;95.70
16038;DHT22;8123;50.906;6.172;2022-08-14T11:28:36;28.50;95.20
16038;DHT22;8123;50.906;6.172;2022-08-14T11:31:04;28.50;97.30
16038;DHT22;8123;50.906;6.172;2022-08-14T11:33:32;28.50;95.20
16038;DHT22;8123;50.906;6.172;2022-08-14T11:36:03;28.60;95.90
16038;DHT22;8123;50.906;6.172;2022-08-14T11:38:43;28.60;96.20
16038;DHT22;8123;50.906;6.172;2022-08-14T11:41:11;28.60;95.00
16038;DHT22;8123;50.906;6.172;2022-08-14T11:43:43;28.60;94.60
16038;DHT22;8123;50.906;6.172;2022-08-14T11:46:10;28.50;95.80
16038;DHT22;8123;50.906;6.172;2022-08-14T11:48:45;28.50;94.50
16038;DHT22;8123;50.906;6.172;2022-08-14T11:51:17;28.50;95.40
16038;DHT22;8123;50.906;6.172;2022-08-14T11:53:58;28.60;94.40
16038;DHT22;8123;50.906;6.172;2022-08-14T11:56:33;28.60;96.20
16038;DHT22;8123;50.906;6.172;2022-08-14T11:59:00;28.80;94.00
16038;DHT22;8123;50.906;6.172;2022-08-14T12:01:28;28.80;94.90
16038;DHT22;8123;50.906;6.172;2022-08-14T12:04:11;28.80;94.00
16038;DHT22;8123;50.906;6.172;2022-08-14T12:06:52;29.00;94.10
16038;DHT22;8123;50.906;6.172;2022-08-14T12:09:32;29.10;93.80
16038;DHT22;8123;50.906;6.172;2022-08-14T12:11:58;29.00;93.30
16038;DHT22;8123;50.906;6.172;2022-08-14T12:14:24;29.20;92.90
16038;DHT22;8123;50.906;6.172;2022-08-14T12:17:07;29.20;93.00
16038;DHT22;8123;50.906;6.172;2022-08-14T12:19:54;29.10;92.50
16038;DHT22;8123;50.906;6.172;2022-08-14T12:22:32;29.00;94.50
16038;DHT22;8123;50.906;6.172;2022-08-14T12:24:59;29.00;92.50
16038;DHT22;8123;50.906;6.172;2022-08-14T12:27:55;29.20;92.70
16038;DHT22;8123;50.906;6.172;2022-08-14T12:30:32;29.40;93.30
16038;DHT22;8123;50.906;6.172;2022-08-14T12:32:58;29.40;92.40
16038;DHT22;8123;50.906;6.172;2022-08-14T12:35:40;29.50;93.40
16038;DHT22;8123;50.906;6.172;2022-08-14T12:38:10;29.50;92.90
16038;DHT22;8123;50.906;6.172;2022-08-14T12:40:56;29.40;92.80
16038;DHT22;8123;50.906;6.172;2022-08-14T12:43:22;29.50;91.80
16038;DHT22;8123;50.906;6.172;2022-08-14T12:45:52;29.40;92.80
16038;DHT22;8123;50.906;6.172;2022-08-14T12:48:20;29.50;91.90
16038;DHT22;8123;50.906;6.172;2022-08-14T12:50:47;29.60;92.80
16038;DHT22;8123;50.906;6.172;2022-08-14T12:53:17;29.60;92.20
16038;DHT22;8123;50.906;6.172;2022-08-14T12:55:44;29.70;92.50
16038;DHT22;8123;50.906;6.172;2022-08-14T12:58:10;29.80;91.90
16038;DHT22;8123;50.906;6.172;2022-08-14T13:00:37;29.90;90.80
16038;DHT22;8123;50.906;6.172;2022-08-14T13:03:04;29.80;91.60
16038;DHT22;8123;50.906;6.172;2022-08-14T13:05:33;29.90;90.70
16038;DHT22;8123;50.906;6.172;2022-08-14T13:08:04;29.90;90.50
16038;DHT22;8123;50.906;6.172;2022-08-14T13:10:32;30.00;90.60
16038;DHT22;8123;50.906;6.172;2022-08-14T13:12:59;30.00;90.70
16038;DHT22;8123;50.906;6.172;2022-08-14T13:15:28;30.10;90.80
16038;DHT22;8123;50.906;6.172;2022-08-14T13:17:55;30.10;90.40
16038;DHT22;8123;50.906;6.172;2022-08-14T13:20:24;29.90;90.80
16038;DHT22;8123;50.906;6.172;2022-08-14T13:22:51;29.80;90.90
16038;DHT22;8123;50.906;6.172;2022-08-14T13:25:22;29.70;92.20
16038;DHT22;8123;50.906;6.172;2022-08-14T13:27:54;29.70;92.30
16038;DHT22;8123;50.906;6.172;2022-08-14T13:30:21;29.80;92.40
16038;DHT22;8123;50.906;6.172;2022-08-14T13:32:49;29.80;91.80
16038;DHT22;8123;50.906;6.172;2022-08-14T13:35:16;29.90;91.70
16038;DHT22;8123;50.906;6.172;2022-08-14T13:37:43;30.00;93.30
16038;DHT22;8123;50.906;6.172;2022-08-14T13:40:10;30.00;92.20
16038;DHT22;8123;50.906;6.172;2022-08-14T13:42:44;29.80;92.60
16038;DHT22;8123;50.906;6.172;2022-08-14T13:45:12;29.80;92.30
16038;DHT22;8123;50.906;6.172;2022-08-14T13:47:39;29.90;93.40
16038;DHT22;8123;50.906;6.172;2022-08-14T13:50:07;29.90;92.50
16038;DHT22;8123;50.906;6.172;2022-08-14T13:52:49;29.90;93.90
16038;DHT22;8123;50.906;6.172;2022-08-14T13:55:20;29.90;92.50
16038;DHT22;8123;50.906;6.172;2022-08-14T13:57:48;29.80;91.90
16038;DHT22;8123;50.906;6.172;2022-08-14T14:00:14;29.70;92.30
16038;DHT22;8123;50.906;6.172;2022-08-14T14:02:45;29.60;91.70
16038;DHT22;8123;50.906;6.172;2022-08-14T14:05:17;29.50;93.70
16038;DHT22;8123;50.906;6.172;2022-08-14T14:07:48;29.50;93.80
16038;DHT22;8123;50.906;6.172;2022-08-14T14:10:16;29.50;92.40
16038;DHT22;8123;50.906;6.172;2022-08-14T14:12:43;29.60;93.20
16038;DHT22;8123;50.906;6.172;2022-08-14T14:15:13;29.60;93.80
16038;DHT22;8123;50.906;6.172;2022-08-14T14:17:40;29.70;93.90
16038;DHT22;8123;50.906;6.172;2022-08-14T14:20:09;29.80;92.20
16038;DHT22;8123;50.906;6.172;2022-08-14T14:22:40;29.90;91.80
16038;DHT22;8123;50.906;6.172;2022-08-14T14:25:07;30.10;92.20
16038;DHT22;8123;50.906;6.172;2022-08-14T14:27:32;30.10;91.50
16038;DHT22;8123;50.906;6.172;2022-08-14T14:30:02;30.10;91.40
16038;DHT22;8123;50.906;6.172;2022-08-14T14:32:30;30.20;90.80
16038;DHT22;8123;50.906;6.172;2022-08-14T14:35:01;30.30;91.40
16038;DHT22;8123;50.906;6.172;2022-08-14T14:37:28;30.30;92.50
16038;DHT22;8123;50.906;6.172;2022-08-14T14:39:56;30.30;91.80
16038;DHT22;8123;50.906;6.172;2022-08-14T14:42:25;30.20;90.90
16038;DHT22;8123;50.906;6.172;2022-08-14T14:45:03;30.10;91.30
16038;DHT22;8123;50.906;6.172;2022-08-14T14:47:31;30.00;91.90
16038;DHT22;8123;50.906;6.172;2022-08-14T14:49:59;29.80;90.50
16038;DHT22;8123;50.906;6.172;2022-08-14T14:52:28;29.90;92.20
16038;DHT22;8123;50.906;6.172;2022-08-14T14:54:58;30.00;92.10
16038;DHT22;8123;50.906;6.172;2022-08-14T14:57:25;29.90;91.90
16038;DHT22;8123;50.906;6.172;2022-08-14T14:59:51;29.80;92.20
16038;DHT22;8123;50.906;6.172;2022-08-14T15:02:30;29.80;92.60
16038;DHT22;8123;50.906;6.172;2022-08-14T15:04:56;29.80;92.70
16038;DHT22;8123;50.906;6.172;2022-08-14T15:07:22;29.90;91.90
16038;DHT22;8123;50.906;6.172;2022-08-14T15:09:48;29.90;93.40
16038;DHT22;8123;50.906;6.172;2022-08-14T15:12:13;30.00;91.90
16038;DHT22;8123;50.906;6.172;2022-08-14T15:14:39;30.00;91.30
16038;DHT22;8123;50.906;6.172;2022-08-14T15:17:05;30.10;90.50
16038;DHT22;8123;50.906;6.172;2022-08-14T15:19:30;30.20;90.80
16038;DHT22;8123;50.906;6.172;2022-08-14T15:21:56;30.30;90.90
16038;DHT22;8123;50.906;6.172;2022-08-14T15:24:23;30.40;90.70
16038;DHT22;8123;50.906;6.172;2022-08-14T15:26:49;30.40;90.40
16038;DHT22;8123;50.906;6.172;2022-08-14T15:29:14;30.40;91.20
16038;DHT22;8123;50.906;6.172;2022-08-14T15:31:40;30.20;91.30
16038;DHT22;8123;50.906;6.172;2022-08-14T15:34:08;30.30;89.30
16038;DHT22;8123;50.906;6.172;2022-08-14T15:36:38;30.20;90.40
16038;DHT22;8123;50.906;6.172;2022-08-14T15:39:04;30.20;90.00
16038;DHT22;8123;50.906;6.172;2022-08-14T15:41:30;30.10;90.60
16038;DHT22;8123;50.906;6.172;2022-08-14T15:43:57;30.10;89.40
16038;DHT22;8123;50.906;6.172;2022-08-14T15:46:23;30.10;88.80
16038;DHT22;8123;50.906;6.172;2022-08-14T15:48:50;30.10;89.00
16038;DHT22;8123;50.906;6.172;2022-08-14T15:51:15;30.10;90.70
16038;DHT22;8123;50.906;6.172;2022-08-14T15:53:41;29.90;90.30
16038;DHT22;8123;50.906;6.172;2022-08-14T15:56:07;29.90;89.50
16038;DHT22;8123;50.906;6.172;2022-08-14T15:58:33;29.80;90.80
16038;DHT22;8123;50.906;6.172;2022-08-14T16:00:58;29.70;89.30
16038;DHT22;8123;50.906;6.172;2022-08-14T16:03:43;29.80;90.40